Altha, Florida
Current Conditions -  °F | °C
As of 9:53 PM on Saturday 20 Dec 2014 (Local Time) from KMAI Reporting Station
Light Rain Light Rain  
Wind Chill: 54°   Ceiling: 4300
Heat Index: 54°   Visibility: 10mi
Dew Point: 54°   Wind: 7mph
Humidity: 100%   Direction: 50°NE
Pressure: 30.13"   Gusts: NA
Location:  30.57°N, 85.13°W
Report Text: KMAI 210353Z AUTO 05006KT 10SM -RA OVC043 12/12 A3013 RMK AO2 RAB46 SLP203 P0000 T01220122 $
Loading
Personal Weather Stations






























Interactive Weather Map New forecast layout! Learn more

10-Day Weather Forecast

Advertisements
Track Severe Weather on mobile